createdAt,value
2018-05-17T16:54:31.590Z,27.15
2018-05-17T16:54:31.921Z,27.17
2018-05-17T16:54:32.377Z,27.2
2018-05-17T16:54:32.647Z,27.11
2018-05-17T16:54:32.925Z,27.11
2018-05-17T16:54:33.322Z,27.14
2018-05-17T16:54:33.581Z,27.15
2018-05-17T16:54:34.047Z,27.12
2018-05-17T16:54:34.301Z,27.08
2018-05-17T16:54:34.657Z,27.12
2018-05-17T16:54:35.131Z,27.12
2018-05-17T16:54:35.204Z,27.18
2018-05-17T16:54:35.552Z,27.18
2018-05-17T16:54:35.914Z,27.11
2018-05-17T16:54:36.324Z,27.12
2018-05-17T16:54:36.638Z,27.22
2018-05-17T16:54:36.981Z,27.1
2018-05-17T16:54:37.343Z,27.18
2018-05-17T16:54:37.715Z,27.1
2018-05-17T16:54:38.060Z,27.22
2018-05-17T16:54:38.411Z,27.17
2018-05-17T16:54:38.777Z,27.11
2018-05-17T16:54:39.109Z,27.11
2018-05-17T16:54:39.459Z,27.07
2018-05-17T16:54:39.803Z,27.17
2018-05-17T16:54:40.145Z,27.11
2018-05-17T16:54:40.494Z,27.2
2018-05-17T16:54:40.841Z,27.25
2018-05-17T16:54:41.187Z,27.07
2018-05-17T16:54:41.553Z,27.14
2018-05-17T16:54:41.900Z,27.2
2018-05-17T16:54:42.330Z,27.17
2018-05-17T16:54:42.639Z,27.14
2018-05-17T16:54:42.983Z,27.12
2018-05-17T16:54:43.342Z,27.1
2018-05-17T16:54:43.699Z,27.1
2018-05-17T16:54:44.038Z,27.08
2018-05-17T16:54:44.413Z,27.11
2018-05-17T16:54:44.747Z,27.12
2018-05-17T16:54:45.102Z,27.17
2018-05-17T16:54:45.455Z,27.1
2018-05-17T16:54:45.813Z,27.14
2018-05-17T16:54:46.160Z,27.14
2018-05-17T16:54:46.512Z,27.14
2018-05-17T16:54:46.870Z,27.12
2018-05-17T16:54:47.264Z,27.14
2018-05-17T16:54:47.608Z,27.22
2018-05-17T16:54:47.954Z,27.08
2018-05-17T16:54:48.335Z,27.18
2018-05-17T16:54:48.696Z,27.11
2018-05-17T16:54:49.056Z,27.11
2018-05-17T16:54:49.399Z,27.08
2018-05-17T16:54:49.756Z,27.08
2018-05-17T16:54:50.159Z,27.17
2018-05-17T16:54:50.508Z,27.1
2018-05-17T16:54:50.852Z,27.1
2018-05-17T16:54:51.192Z,27.17
2018-05-17T16:54:51.538Z,27.05
2018-05-17T16:54:51.879Z,27.08
2018-05-17T16:54:52.223Z,27.11
2018-05-17T16:54:52.572Z,27.11
2018-05-17T16:54:52.919Z,27.11
2018-05-17T16:54:53.294Z,27.18
2018-05-17T16:54:53.671Z,27.1
2018-05-17T16:54:54.008Z,27.08
2018-05-17T16:54:54.370Z,27.15
2018-05-17T16:54:54.716Z,27.14
2018-05-17T16:54:55.082Z,27.17
2018-05-17T16:54:55.418Z,27.2
2018-05-17T16:54:55.778Z,27.14
2018-05-17T16:54:56.123Z,27.15
2018-05-17T16:54:56.469Z,27.18
2018-05-17T16:54:56.815Z,27.14
2018-05-17T16:54:57.169Z,27.1
2018-05-17T16:54:57.511Z,27.15
2018-05-17T16:54:57.873Z,27.14
2018-05-17T16:54:58.215Z,27.08
2018-05-17T16:54:58.597Z,27.08
2018-05-17T16:54:58.934Z,27.21
2018-05-17T16:54:59.284Z,27.22
2018-05-17T16:54:59.642Z,27.17
2018-05-17T16:55:00.097Z,27.14
2018-05-17T16:55:00.444Z,27.2
2018-05-17T16:55:00.793Z,27.08
2018-05-17T16:55:01.144Z,27.17
2018-05-17T16:55:01.488Z,27.22
2018-05-17T16:55:01.849Z,27.12
2018-05-17T16:55:02.131Z,27.07
2018-05-17T16:55:02.828Z,27.21
2018-05-17T16:55:03.193Z,27.12
2018-05-17T16:55:03.546Z,27.2
2018-05-17T16:55:04.093Z,27.15
2018-05-17T16:55:04.448Z,27.11
2018-05-17T16:55:04.780Z,27.11
2018-05-17T16:55:05.138Z,27.22
2018-05-17T16:55:05.481Z,27.21
2018-05-17T16:55:05.859Z,27.2
2018-05-17T16:55:06.250Z,27.26
2018-05-17T16:55:06.606Z,27.2
2018-05-17T16:55:06.947Z,27.15
2018-05-17T16:55:07.294Z,27.11
2018-05-17T16:55:07.639Z,27.22
2018-05-17T16:55:28.016Z,27.22
2018-05-17T16:55:28.369Z,27.2
2018-05-17T16:55:28.715Z,27.17
2018-05-17T16:55:29.069Z,27.17
2018-05-17T16:55:29.435Z,27.25
2018-05-17T16:55:29.799Z,27.15
2018-05-17T16:55:30.194Z,27.21
2018-05-17T16:55:30.541Z,27.17
2018-05-17T16:55:30.880Z,27.18
2018-05-17T16:55:43.094Z,27.21
2018-05-17T16:55:43.440Z,27.21
2018-05-17T16:55:43.802Z,27.17
2018-05-17T16:55:44.163Z,27.21
2018-05-17T16:55:44.517Z,27.17
2018-05-17T16:55:44.859Z,27.17
2018-05-17T16:55:45.216Z,27.2
2018-05-17T16:55:45.572Z,27.18
2018-05-17T16:55:46.007Z,27.17
2018-05-17T16:55:46.277Z,27.22
2018-05-17T16:55:46.636Z,27.22
2018-05-17T16:55:58.566Z,27.17
2018-05-17T16:55:58.927Z,27.15
2018-05-17T16:55:59.228Z,27.2
2018-05-17T16:55:59.604Z,27.15
2018-05-17T16:55:59.840Z,27.15
2018-05-17T16:56:00.091Z,27.2
2018-05-17T16:56:00.352Z,27.21
2018-05-17T16:56:00.764Z,27.2
2018-05-17T16:56:01.110Z,27.2
2018-05-17T16:56:01.462Z,27.21
2018-05-17T16:56:01.711Z,27.26
2018-05-17T16:56:01.985Z,27.17
2018-05-17T16:56:02.334Z,27.2
2018-05-17T16:56:02.690Z,27.21
2018-05-17T16:56:02.959Z,27.15
2018-05-17T16:56:03.205Z,27.18
2018-05-17T16:56:03.549Z,27.14
2018-05-17T16:56:03.824Z,27.15
2018-05-17T16:56:04.256Z,27.17
2018-05-17T16:56:04.660Z,27.21
2018-05-17T16:56:04.917Z,27.21
2018-05-17T16:56:05.272Z,27.18
2018-05-17T16:56:05.630Z,27.15
2018-05-17T16:56:05.910Z,27.2
2018-05-17T16:56:06.254Z,27.21
2018-05-17T16:56:26.636Z,27.87
2018-05-17T16:56:26.892Z,27.85
2018-05-17T16:56:27.554Z,27.86
2018-05-17T16:56:28.002Z,27.96
2018-05-17T16:56:28.221Z,27.96
2018-05-17T16:56:28.517Z,27.92
2018-05-17T16:56:28.770Z,27.96
2018-05-17T16:56:29.098Z,27.93
2018-05-17T16:56:29.358Z,27.96
2018-05-17T16:56:29.749Z,28.08
2018-05-17T16:56:30.011Z,28.01
2018-05-17T16:56:30.388Z,28.05
2018-05-17T16:56:30.677Z,28.11
2018-05-17T16:56:31.009Z,28.07
2018-05-17T16:56:31.289Z,28.05
2018-05-17T16:56:31.563Z,28.14
2018-05-17T16:56:31.820Z,28.08
2018-05-17T16:56:32.073Z,28.1
2018-05-17T16:56:32.428Z,28.11
2018-05-17T16:56:32.707Z,28.11
2018-05-17T16:56:33.115Z,28.17
2018-05-17T16:56:33.405Z,28.15
2018-05-17T16:56:33.755Z,28.14
2018-05-17T16:56:34.009Z,28.22
2018-05-17T16:56:34.346Z,28.17
2018-05-17T16:56:34.607Z,28.2
2018-05-17T16:56:34.845Z,28.2
2018-05-17T16:56:35.113Z,28.2
2018-05-17T16:56:35.374Z,28.11
2018-05-17T16:56:35.750Z,28.22
2018-05-17T16:56:36.894Z,28.22
2018-05-17T16:56:37.236Z,28.2
2018-05-17T16:56:37.497Z,28.15
2018-05-17T16:56:37.851Z,28.22
2018-05-17T16:56:38.201Z,28.22
2018-05-17T16:56:38.552Z,28.19
2018-05-17T16:56:38.843Z,28.14
2018-05-17T16:56:39.190Z,28.2
2018-05-17T16:56:39.461Z,28.2
2018-05-17T16:56:39.726Z,28.17
2018-05-17T16:56:39.987Z,28.15
2018-05-17T16:56:40.340Z,28.2
2018-05-17T16:56:40.694Z,28.19
2018-05-17T16:56:40.972Z,28.2
2018-05-17T16:56:41.217Z,28.26
2018-05-17T16:56:41.480Z,28.2
2018-05-17T16:56:41.758Z,28.2
2018-05-17T16:56:42.008Z,28.22
2018-05-17T16:56:42.480Z,28.22
2018-05-17T16:56:42.823Z,28.22
2018-05-17T16:56:43.088Z,28.2
2018-05-17T16:56:43.348Z,28.22
2018-05-17T16:56:43.603Z,28.22
2018-05-17T16:56:43.860Z,28.26
2018-05-17T16:56:44.111Z,28.25
2018-05-17T16:56:44.382Z,28.3
2018-05-17T16:56:44.636Z,28.17
2018-05-17T16:56:44.987Z,28.29
2018-05-17T16:56:45.260Z,28.27
2018-05-17T16:56:45.503Z,28.17
2018-05-17T16:56:45.779Z,28.17
2018-05-17T16:56:46.030Z,28.25
2018-05-17T16:56:46.294Z,28.26
2018-05-17T16:56:46.677Z,28.25
2018-05-17T16:56:47.012Z,28.29
2018-05-17T16:56:47.464Z,28.15
2018-05-17T16:56:48.461Z,28.19
2018-05-17T16:56:48.806Z,28.22
2018-05-17T16:56:49.071Z,28.29
2018-05-17T16:56:49.332Z,28.29
2018-05-17T16:56:49.688Z,28.3
2018-05-17T16:56:50.102Z,28.32
2018-05-17T16:56:50.487Z,28.23
2018-05-17T16:56:50.758Z,28.25
2018-05-17T16:56:51.037Z,28.29
2018-05-17T16:56:51.387Z,28.26
2018-05-17T16:56:51.656Z,28.25
2018-05-17T16:56:51.908Z,28.29
2018-05-17T16:56:52.263Z,28.3
2018-05-17T16:56:52.537Z,28.25
2018-05-17T16:56:52.869Z,28.29
2018-05-17T16:56:53.118Z,28.26
2018-05-17T16:56:53.392Z,28.22
2018-05-17T16:56:53.699Z,28.29
2018-05-17T16:56:54.023Z,28.27
2018-05-17T16:56:54.447Z,28.26
2018-05-17T16:56:54.800Z,28.26
2018-05-17T16:56:55.072Z,28.22
2018-05-17T16:56:55.319Z,28.25
2018-05-17T16:56:55.584Z,28.26
2018-05-17T16:56:55.840Z,28.23
2018-05-17T16:56:56.196Z,28.26
2018-05-17T16:56:56.454Z,28.27
2018-05-17T16:56:56.716Z,28.2
2018-05-17T16:56:57.242Z,28.14
2018-05-17T16:56:57.612Z,28.26
2018-05-17T16:56:57.846Z,28.22
2018-05-17T16:56:57.912Z,28.25
2018-05-17T16:56:58.384Z,28.26
2018-05-17T16:56:58.661Z,28.26
2018-05-17T16:56:59.010Z,28.26
2018-05-17T16:56:59.268Z,28.2
2018-05-17T16:56:59.539Z,28.25
2018-05-17T16:56:59.797Z,28.23
2018-05-17T16:57:00.125Z,28.26
2018-05-17T16:57:00.471Z,28.25
2018-05-17T16:57:00.747Z,28.22
2018-05-17T16:57:01.101Z,28.17
2018-05-17T16:57:01.534Z,28.3
2018-05-17T16:57:01.789Z,28.2
2018-05-17T16:57:02.050Z,28.15
2018-05-17T16:57:02.384Z,28.1
2018-05-17T16:57:02.690Z,27.98
2018-05-17T16:57:02.866Z,28.04
2018-05-17T16:57:03.200Z,27.98
2018-05-17T16:57:03.455Z,27.98
2018-05-17T16:57:04.033Z,27.96
2018-05-17T16:57:04.320Z,28.01
2018-05-17T16:57:04.371Z,27.93
2018-05-17T16:57:04.705Z,27.98
2018-05-17T16:57:05.055Z,27.93
2018-05-17T16:57:05.409Z,27.96
2018-05-17T16:57:05.700Z,27.98
2018-05-17T16:57:06.045Z,27.93
2018-05-17T16:57:06.354Z,27.89
2018-05-17T16:57:06.643Z,27.93
2018-05-17T16:57:07.139Z,27.87
2018-05-17T16:57:07.556Z,28.01
2018-05-17T16:57:07.845Z,27.93
2018-05-17T16:57:08.200Z,27.93
2018-05-17T16:57:08.560Z,27.93
2018-05-17T16:57:08.834Z,27.86
2018-05-17T16:57:09.116Z,27.89
2018-05-17T16:57:09.366Z,27.87
2018-05-17T16:57:10.219Z,27.83
2018-05-17T16:57:10.322Z,27.9
2018-05-17T16:57:31.577Z,27.55
2018-05-17T16:57:31.941Z,27.58
2018-05-17T16:57:32.288Z,27.63
2018-05-17T16:57:32.549Z,27.48
2018-05-17T16:57:32.835Z,27.51
2018-05-17T16:57:33.097Z,27.51
2018-05-17T16:57:33.414Z,27.52
2018-05-17T16:57:33.720Z,27.55
2018-05-17T16:57:33.971Z,27.54
2018-05-17T16:57:34.257Z,27.54
2018-05-17T16:57:34.606Z,27.59
2018-05-17T16:57:34.879Z,27.54
2018-05-17T16:57:35.123Z,27.55
2018-05-17T16:57:35.540Z,27.54
2018-05-17T16:57:35.856Z,27.54
2018-05-17T16:57:36.048Z,27.58
2018-05-17T16:57:36.346Z,27.59
2018-05-17T16:57:36.697Z,27.59
2018-05-17T16:57:37.052Z,27.55
2018-05-17T16:57:37.435Z,27.52
2018-05-17T16:57:37.799Z,27.51
2018-05-17T16:57:38.138Z,27.52
2018-05-17T16:57:38.486Z,27.54
2018-05-17T16:57:38.837Z,27.59
2018-05-17T16:57:39.181Z,27.58
2018-05-17T16:57:39.520Z,27.55
2018-05-17T16:57:39.875Z,27.51
2018-05-17T16:57:40.322Z,27.52
2018-05-17T16:57:40.682Z,27.49
2018-05-17T16:57:41.040Z,27.47
2018-05-17T16:57:41.448Z,27.52
2018-05-17T16:57:41.861Z,27.49
2018-05-17T16:57:42.175Z,27.49
2018-05-17T16:57:42.527Z,27.48
2018-05-17T16:57:42.880Z,27.51
2018-05-17T16:57:43.369Z,27.47
2018-05-17T16:57:43.721Z,27.47
2018-05-17T16:57:44.085Z,27.55
2018-05-17T16:57:44.445Z,27.44
2018-05-17T16:57:44.804Z,27.52
2018-05-17T16:57:45.280Z,27.37
2018-05-17T16:57:45.635Z,27.47
2018-05-17T16:57:45.991Z,27.51
2018-05-17T16:57:46.334Z,27.35
2018-05-17T16:57:46.691Z,27.49
2018-05-17T16:57:47.036Z,27.52
2018-05-17T16:57:47.397Z,27.47
2018-05-17T16:57:47.786Z,27.45
2018-05-17T16:57:48.324Z,27.35
2018-05-17T16:57:48.640Z,27.4
2018-05-17T16:57:48.995Z,27.36
2018-05-17T16:57:49.355Z,27.37
2018-05-17T16:57:49.732Z,27.39
2018-05-17T16:57:50.088Z,27.37
2018-05-17T16:57:50.444Z,27.39
2018-05-17T16:57:50.792Z,27.36
2018-05-17T16:57:51.136Z,27.36
2018-05-17T16:57:51.489Z,27.36
2018-05-17T16:57:51.811Z,27.36
2018-05-17T16:57:52.183Z,27.35
2018-05-17T16:57:52.536Z,27.4
2018-05-17T16:57:52.889Z,27.48
2018-05-17T16:57:53.231Z,27.4
2018-05-17T16:57:53.592Z,27.39
2018-05-17T16:57:53.944Z,27.39
2018-05-17T16:57:54.314Z,27.47
2018-05-17T16:57:54.663Z,27.33
2018-05-17T16:57:55.051Z,27.39
2018-05-17T16:57:55.406Z,27.42
2018-05-17T16:57:55.761Z,27.42
2018-05-17T16:57:56.113Z,27.42
2018-05-17T16:57:56.462Z,27.4
2018-05-17T16:57:56.814Z,27.35
2018-05-17T16:57:57.165Z,27.39
2018-05-17T16:57:57.520Z,27.4
2018-05-17T16:57:57.873Z,27.39
2018-05-17T16:57:58.217Z,27.35
2018-05-17T16:57:58.563Z,27.39
2018-05-17T16:57:58.995Z,27.4
2018-05-17T16:57:59.337Z,27.33
2018-05-17T16:57:59.702Z,27.36
2018-05-17T16:58:00.049Z,27.39
2018-05-17T16:58:00.432Z,27.27
2018-05-17T16:58:00.783Z,27.29
2018-05-17T16:58:01.131Z,27.27
2018-05-17T16:58:01.484Z,27.36
2018-05-17T16:58:01.939Z,27.37
2018-05-17T16:58:02.292Z,27.39
2018-05-17T16:58:02.637Z,27.33
2018-05-17T16:58:02.989Z,27.27
2018-05-17T16:58:03.331Z,27.3
2018-05-17T16:58:03.684Z,27.3
2018-05-17T16:58:04.030Z,27.35
2018-05-17T16:58:04.396Z,27.32
2018-05-17T16:58:04.747Z,27.33
2018-05-17T16:58:05.094Z,27.29
2018-05-17T16:58:05.438Z,27.33
2018-05-17T16:58:05.871Z,27.29
2018-05-17T16:58:06.111Z,27.25
2018-05-17T16:58:06.477Z,27.3
2018-05-17T16:58:06.820Z,27.3
2018-05-17T16:58:07.177Z,27.29
2018-05-17T16:58:07.528Z,27.35
2018-05-17T16:58:07.880Z,27.35
2018-05-17T16:58:08.237Z,27.35
2018-05-17T16:58:08.601Z,27.32
2018-05-17T16:58:08.953Z,27.3
2018-05-17T16:58:09.317Z,27.29
2018-05-17T16:58:09.732Z,27.29
2018-05-17T16:58:10.126Z,27.22
2018-05-17T16:58:10.477Z,27.27
2018-05-17T16:58:10.827Z,27.33
2018-05-17T16:58:11.179Z,27.27
2018-05-17T16:58:11.535Z,27.26
2018-05-17T16:58:11.885Z,27.26
2018-05-17T16:58:12.357Z,27.29
2018-05-17T16:58:12.591Z,27.21
2018-05-17T16:58:12.954Z,27.2
2018-05-17T16:58:13.309Z,27.22
2018-05-17T16:58:13.737Z,27.3
2018-05-17T16:58:14.181Z,27.32
2018-05-17T16:58:14.532Z,27.29
2018-05-17T16:58:14.875Z,27.22
2018-05-17T16:58:15.236Z,27.25
2018-05-17T16:58:15.581Z,27.27
2018-05-17T16:58:15.935Z,27.21
2018-05-17T16:58:16.277Z,27.27
2018-05-17T16:58:16.633Z,27.25
2018-05-17T16:58:16.985Z,27.27
2018-05-17T16:58:17.327Z,27.27
2018-05-17T16:58:17.686Z,27.25
2018-05-17T16:58:18.163Z,27.29
2018-05-17T16:58:18.504Z,27.22
2018-05-17T16:58:18.863Z,27.21
2018-05-17T16:58:19.205Z,27.22
2018-05-17T16:58:19.548Z,27.15
2018-05-17T16:58:19.903Z,27.18
2018-05-17T16:58:20.252Z,27.27
2018-05-17T16:58:20.610Z,27.21
2018-05-17T16:58:21.033Z,27.2
2018-05-17T16:58:21.461Z,27.22
2018-05-17T16:58:21.820Z,27.18
2018-05-17T16:58:22.171Z,27.25
2018-05-17T16:58:22.527Z,27.22
2018-05-17T16:58:22.878Z,27.21
2018-05-17T16:58:23.233Z,27.25
2018-05-17T16:58:23.590Z,27.2
2018-05-17T16:58:23.962Z,27.17
2018-05-17T16:58:24.328Z,27.21
2018-05-17T16:58:24.672Z,27.26
2018-05-17T16:58:25.026Z,27.15
2018-05-17T16:58:25.371Z,27.25
2018-05-17T16:58:25.730Z,27.26
2018-05-17T16:58:26.121Z,27.17
2018-05-17T16:58:26.473Z,27.15
2018-05-17T16:58:26.815Z,27.21
2018-05-17T16:58:27.163Z,27.21
2018-05-17T16:58:27.509Z,27.18
2018-05-17T16:58:27.872Z,27.17
2018-05-17T16:58:28.226Z,27.25
2018-05-17T16:58:28.573Z,27.2
2018-05-17T16:58:28.921Z,27.21
2018-05-17T16:58:29.260Z,27.22
2018-05-17T16:58:29.617Z,27.25
2018-05-17T16:58:29.982Z,27.18
2018-05-17T16:58:30.332Z,27.2
2018-05-17T16:58:30.690Z,27.14
2018-05-17T16:58:31.065Z,27.18
2018-05-17T16:58:31.406Z,27.14
2018-05-17T16:58:31.761Z,27.18
2018-05-17T16:58:32.119Z,27.1
2018-05-17T16:58:32.470Z,27.26
2018-05-17T16:58:32.833Z,27.25
2018-05-17T16:58:33.185Z,27.21
2018-05-17T16:58:33.557Z,27.2
2018-05-17T16:58:33.963Z,27.05
2018-05-17T16:58:34.279Z,27.11
2018-05-17T16:58:34.630Z,27.22
2018-05-17T16:58:34.986Z,27.2
2018-05-17T16:58:35.340Z,27.08
2018-05-17T16:58:35.701Z,27.1
2018-05-17T16:58:36.048Z,27.18
2018-05-17T16:58:36.413Z,27.2
2018-05-17T16:58:36.771Z,27.1
2018-05-17T16:58:37.121Z,27.14
2018-05-17T16:58:37.465Z,27.15
2018-05-17T16:58:37.825Z,27.15
2018-05-17T16:58:38.181Z,27.15
2018-05-17T16:58:38.521Z,27.12
2018-05-17T16:58:38.919Z,27.17
2018-05-17T16:58:39.247Z,27.14
2018-05-17T16:58:39.581Z,27.18
2018-05-17T16:58:40.024Z,27.17
2018-05-17T16:58:40.293Z,27.14
2018-05-17T16:58:40.618Z,27.15
2018-05-17T16:58:40.976Z,27.15
2018-05-17T16:58:41.316Z,27.21
2018-05-17T16:58:41.703Z,27.17
2018-05-17T16:58:42.082Z,27.14
2018-05-17T16:58:42.510Z,27.11
2018-05-17T16:58:42.952Z,27.11
2018-05-17T16:58:43.319Z,27.11
2018-05-17T16:59:03.578Z,27.1
2018-05-17T16:59:03.932Z,27.14
2018-05-17T16:59:04.282Z,27.17
2018-05-17T16:59:04.631Z,27.12
2018-05-17T16:59:04.978Z,27.14
2018-05-17T16:59:05.336Z,27.11
2018-05-17T16:59:05.688Z,27.14
2018-05-17T16:59:06.995Z,27.08
2018-05-17T16:59:07.349Z,27.07
2018-05-17T16:59:07.695Z,27.07
2018-05-17T16:59:08.098Z,27.08
2018-05-17T16:59:08.444Z,27.15
2018-05-17T16:59:08.801Z,27.08
2018-05-17T16:59:09.147Z,27.15
2018-05-17T16:59:09.488Z,27.15
2018-05-17T16:59:09.829Z,27.11
2018-05-17T16:59:10.175Z,27.07
2018-05-17T16:59:10.520Z,27.17
2018-05-17T16:59:10.875Z,27.05
2018-05-17T16:59:11.224Z,27.11
2018-05-17T16:59:11.567Z,27.08
2018-05-17T16:59:11.929Z,27.08
2018-05-17T16:59:12.342Z,27.08
2018-05-17T16:59:12.699Z,27.1
2018-05-17T16:59:13.029Z,27.11
2018-05-17T16:59:13.385Z,27.1
2018-05-17T16:59:14.184Z,27.07
2018-05-17T16:59:14.323Z,27.08
2018-05-17T16:59:14.529Z,27.08
2018-05-17T16:59:14.930Z,27.05
2018-05-17T16:59:15.280Z,27.02
2018-05-17T16:59:15.666Z,27.07
2018-05-17T16:59:16.020Z,27.14
2018-05-17T16:59:16.376Z,27.07
2018-05-17T16:59:16.724Z,27.02
2018-05-17T16:59:17.084Z,27.12
2018-05-17T16:59:17.430Z,27.11
2018-05-17T16:59:17.765Z,27.07
2018-05-17T16:59:18.153Z,27.07
2018-05-17T16:59:18.509Z,27.05
2018-05-17T16:59:18.843Z,27.07
2018-05-17T16:59:19.206Z,27.03
2018-05-17T16:59:19.544Z,27.14
2018-05-17T16:59:19.892Z,27.07
2018-05-17T16:59:20.235Z,27.14
2018-05-17T16:59:20.585Z,27.07
2018-05-17T16:59:20.927Z,27.07
2018-05-17T16:59:21.274Z,27.1
2018-05-17T16:59:21.618Z,27.02
2018-05-17T16:59:22.108Z,27.05
2018-05-17T16:59:22.421Z,27.03
2018-05-17T16:59:22.779Z,27.12
2018-05-17T16:59:23.120Z,27.15
2018-05-17T16:59:23.476Z,27.1
2018-05-17T16:59:23.836Z,27.02
2018-05-17T16:59:24.200Z,27.1
2018-05-17T16:59:24.547Z,27.07
2018-05-17T16:59:24.897Z,27.03
2018-05-17T16:59:25.248Z,27.03
2018-05-17T16:59:25.629Z,27.03
2018-05-17T16:59:25.954Z,27.1
2018-05-17T16:59:26.247Z,27.02
2018-05-17T16:59:26.589Z,27.03
2018-05-17T16:59:26.939Z,27.03
2018-05-17T16:59:27.281Z,27.02
2018-05-17T16:59:27.623Z,27.07
2018-05-17T16:59:28.003Z,27.07
2018-05-17T16:59:28.363Z,27.08
2018-05-17T16:59:28.707Z,27.05
2018-05-17T16:59:29.044Z,27.07
2018-05-17T16:59:29.396Z,27.03
2018-05-17T16:59:29.865Z,27.1
2018-05-17T16:59:30.161Z,27.07
2018-05-17T16:59:30.518Z,27.07
2018-05-17T16:59:30.869Z,27.1
2018-05-17T16:59:31.218Z,27.07
2018-05-17T16:59:31.569Z,27.07
2018-05-17T16:59:31.920Z,27.07
2018-05-17T16:59:32.271Z,27.05
2018-05-17T16:59:32.619Z,27.12
2018-05-17T16:59:32.974Z,27.08
2018-05-17T16:59:33.324Z,27.07
2018-05-17T16:59:33.681Z,27.12
2018-05-17T16:59:34.031Z,27.1
2018-05-17T16:59:34.384Z,27.07
2018-05-17T16:59:34.725Z,27.07
2018-05-17T16:59:35.064Z,27.07
2018-05-17T16:59:35.423Z,27.07
2018-05-17T16:59:35.805Z,27.07
2018-05-17T16:59:36.212Z,27.07
2018-05-17T16:59:36.527Z,27.05
2018-05-17T16:59:36.879Z,27.07
2018-05-17T16:59:37.187Z,27.03
2018-05-17T16:59:37.533Z,27.07
2018-05-17T16:59:37.888Z,27.03
2018-05-17T16:59:38.239Z,27
2018-05-17T16:59:38.590Z,27.03
2018-05-17T16:59:38.938Z,27.07
2018-05-17T16:59:39.282Z,27.07
2018-05-17T16:59:39.635Z,27.07
2018-05-17T16:59:39.993Z,27.07
2018-05-17T16:59:40.344Z,27.07
2018-05-17T16:59:40.700Z,27.02
2018-05-17T16:59:41.068Z,27.07
2018-05-17T16:59:41.414Z,27.03
2018-05-17T16:59:41.751Z,27.05
2018-05-17T16:59:42.131Z,27.03
2018-05-17T16:59:42.515Z,27.03
2018-05-17T16:59:42.869Z,27.07
2018-05-17T16:59:43.212Z,27.05
2018-05-17T16:59:43.580Z,27.05
2018-05-17T16:59:43.934Z,27.03
2018-05-17T16:59:44.280Z,27
2018-05-17T16:59:44.634Z,27.03
2018-05-17T16:59:44.988Z,27.03
2018-05-17T16:59:45.346Z,27.03
2018-05-17T16:59:45.693Z,27.03
2018-05-17T16:59:46.064Z,27.07
2018-05-17T16:59:46.489Z,27.08
2018-05-17T16:59:46.830Z,26.96
2018-05-17T16:59:47.178Z,27.07
2018-05-17T16:59:47.535Z,27.07
2018-05-17T16:59:47.956Z,27.02
2018-05-17T16:59:48.396Z,27.02
2018-05-17T16:59:48.747Z,27
2018-05-17T16:59:49.095Z,27.07
2018-05-17T16:59:49.433Z,26.92
2018-05-17T16:59:49.791Z,26.95
2018-05-17T16:59:50.136Z,27.03
2018-05-17T16:59:50.485Z,26.92
2018-05-17T16:59:50.827Z,27.05
2018-05-17T16:59:51.177Z,26.99
2018-05-17T16:59:51.526Z,27.07
2018-05-17T16:59:51.881Z,27.05
2018-05-17T16:59:52.248Z,26.99
2018-05-17T16:59:52.599Z,27.05
2018-05-17T16:59:52.968Z,27.07
2018-05-17T16:59:53.323Z,26.93
2018-05-17T16:59:53.676Z,27.03
2018-05-17T16:59:54.032Z,27.05
2018-05-17T16:59:54.394Z,27.03
2018-05-17T16:59:54.756Z,27.03
2018-05-17T16:59:55.091Z,26.9
2018-05-17T16:59:55.440Z,27.02
2018-05-17T16:59:55.791Z,27.03
2018-05-17T16:59:56.137Z,26.95
2018-05-17T16:59:56.483Z,26.95
2018-05-17T16:59:56.832Z,27.02
2018-05-17T16:59:57.170Z,27.07
2018-05-17T16:59:57.519Z,26.92
2018-05-17T16:59:57.870Z,26.96
2018-05-17T16:59:58.221Z,27.02
2018-05-17T16:59:58.585Z,26.96
2018-05-17T16:59:58.937Z,27.03
2018-05-17T16:59:59.291Z,26.99
2018-05-17T16:59:59.645Z,26.99
2018-05-17T17:00:00.108Z,26.9
2018-05-17T17:00:00.525Z,26.92
2018-05-17T17:00:00.918Z,27.03
2018-05-17T17:00:01.244Z,26.97
2018-05-17T17:00:01.586Z,26.97
2018-05-17T17:00:01.937Z,26.99
2018-05-17T17:00:02.285Z,26.97
2018-05-17T17:00:02.633Z,26.99
2018-05-17T17:00:03.020Z,26.92
2018-05-17T17:00:23.393Z,26.92
2018-05-17T17:00:24.546Z,26.93
2018-05-17T17:00:24.896Z,26.93
2018-05-17T17:00:25.258Z,26.92
2018-05-17T17:00:25.937Z,26.95
2018-05-17T17:00:26.297Z,26.96
2018-05-17T17:00:26.321Z,26.92
2018-05-17T17:00:26.657Z,26.89
2018-05-17T17:00:27.005Z,26.93
2018-05-17T17:00:27.417Z,26.92
2018-05-17T17:00:27.777Z,26.93
2018-05-17T17:00:28.066Z,26.89
2018-05-17T17:00:28.447Z,26.92
2018-05-17T17:00:28.809Z,26.92
2018-05-17T17:00:29.225Z,26.9
2018-05-17T17:00:29.527Z,26.93
2018-05-17T17:00:29.927Z,26.9
2018-05-17T17:00:30.388Z,26.92
2018-05-17T17:00:30.655Z,26.9
2018-05-17T17:00:31.053Z,26.92
2018-05-17T17:00:31.405Z,26.89
2018-05-17T17:00:31.765Z,26.96
2018-05-17T17:00:32.137Z,26.96
2018-05-17T17:00:52.520Z,26.93
2018-05-17T17:00:52.890Z,26.99
2018-05-17T17:00:53.222Z,26.97
2018-05-17T17:00:53.569Z,26.95
2018-05-17T17:00:53.916Z,26.97
2018-05-17T17:00:54.275Z,26.99
2018-05-17T17:00:54.627Z,26.96
2018-05-17T17:00:54.973Z,26.93
2018-05-17T17:00:55.323Z,26.97
2018-05-17T17:00:55.705Z,26.97
2018-05-17T17:00:56.036Z,26.97
2018-05-17T17:00:56.384Z,26.97
2018-05-17T17:00:56.853Z,26.93
2018-05-17T17:00:57.208Z,26.92
2018-05-17T17:00:57.572Z,26.96
2018-05-17T17:00:57.948Z,26.96
2018-05-17T17:00:58.402Z,26.93
2018-05-17T17:00:58.767Z,26.92
2018-05-17T17:00:59.124Z,26.96
2018-05-17T17:00:59.480Z,26.99
2018-05-17T17:00:59.861Z,26.97
2018-05-17T17:01:00.201Z,26.93
2018-05-17T17:01:00.540Z,26.97
2018-05-17T17:01:00.899Z,26.9
2018-05-17T17:01:01.264Z,26.97
2018-05-17T17:01:01.620Z,26.97
2018-05-17T17:01:01.976Z,26.97
2018-05-17T17:01:02.329Z,26.96
2018-05-17T17:01:02.673Z,26.96
2018-05-17T17:01:03.015Z,26.95
2018-05-17T17:01:03.374Z,26.97
2018-05-17T17:01:03.732Z,26.92
2018-05-17T17:01:04.093Z,26.93
2018-05-17T17:01:04.429Z,26.97
2018-05-17T17:01:04.819Z,26.96
2018-05-17T17:01:05.162Z,26.89
2018-05-17T17:01:05.506Z,26.96
2018-05-17T17:01:05.901Z,26.95
2018-05-17T17:01:06.354Z,26.96
2018-05-17T17:01:06.607Z,26.97
2018-05-17T17:01:06.972Z,26.9
2018-05-17T17:01:07.311Z,26.93
2018-05-17T17:01:07.661Z,26.97
2018-05-17T17:01:08.018Z,26.92
2018-05-17T17:01:08.369Z,26.96
2018-05-17T17:01:08.729Z,26.97
2018-05-17T17:01:09.090Z,26.97
2018-05-17T17:01:09.578Z,26.92
2018-05-17T17:01:09.932Z,26.92
2018-05-17T17:01:10.274Z,26.92
2018-05-17T17:01:10.628Z,26.96
2018-05-17T17:01:10.985Z,26.89
2018-05-17T17:01:11.328Z,26.9
2018-05-17T17:01:11.691Z,26.96
2018-05-17T17:01:12.002Z,26.92
2018-05-17T17:01:12.419Z,26.95
2018-05-17T17:01:12.733Z,26.9
2018-05-17T17:01:13.074Z,26.92
2018-05-17T17:01:13.516Z,26.92
2018-05-17T17:01:13.860Z,26.92
2018-05-17T17:01:14.596Z,26.93
2018-05-17T17:01:14.823Z,26.93
2018-05-17T17:01:14.943Z,26.96
2018-05-17T17:01:15.414Z,26.84
2018-05-17T17:01:15.757Z,26.93
2018-05-17T17:01:16.117Z,26.88
2018-05-17T17:01:16.471Z,26.89
2018-05-17T17:01:16.827Z,26.99
2018-05-17T17:01:17.254Z,26.89
2018-05-17T17:01:17.598Z,26.96
2018-05-17T17:01:17.963Z,26.96
2018-05-17T17:01:18.327Z,26.96
2018-05-17T17:01:18.684Z,26.88
2018-05-17T17:01:19.035Z,26.9
2018-05-17T17:01:19.395Z,26.89
2018-05-17T17:01:19.736Z,26.9
2018-05-17T17:01:20.084Z,26.9
2018-05-17T17:01:20.439Z,26.9
2018-05-17T17:01:20.777Z,26.89
2018-05-17T17:01:21.131Z,26.96
2018-05-17T17:01:21.490Z,26.89
2018-05-17T17:01:21.850Z,26.88
2018-05-17T17:01:22.202Z,26.89
2018-05-17T17:01:22.550Z,26.88
2018-05-17T17:01:22.886Z,26.84
2018-05-17T17:01:23.233Z,26.84
2018-05-17T17:01:23.586Z,26.93
2018-05-17T17:01:23.942Z,26.96
2018-05-17T17:01:24.300Z,26.88
2018-05-17T17:01:24.654Z,26.83
2018-05-17T17:01:25.000Z,26.88
2018-05-17T17:01:25.360Z,26.85
2018-05-17T17:01:25.701Z,26.95
2018-05-17T17:01:26.064Z,26.97
2018-05-17T17:01:26.411Z,26.85
2018-05-17T17:01:26.769Z,26.93
2018-05-17T17:01:27.139Z,26.9
2018-05-17T17:01:27.492Z,26.92
2018-05-17T17:01:27.834Z,26.88
2018-05-17T17:01:28.186Z,26.96
2018-05-17T17:01:28.548Z,26.92
2018-05-17T17:01:28.904Z,26.92
2018-05-17T17:01:29.366Z,26.84